createdAt,value
2018-07-20T00:00:41.497Z,0
2018-07-20T00:01:51.577Z,0
2018-07-20T00:03:01.391Z,0
2018-07-20T00:04:11.214Z,0
2018-07-20T00:05:21.018Z,0
2018-07-20T00:06:31.082Z,0
2018-07-20T00:07:40.894Z,0
2018-07-20T00:08:50.986Z,0
2018-07-20T00:10:01.114Z,0
2018-07-20T00:11:11.176Z,0
2018-07-20T00:12:20.986Z,0
2018-07-20T00:13:31.055Z,0
2018-07-20T00:14:41.140Z,0
2018-07-20T00:15:51.226Z,0
2018-07-20T00:17:01.333Z,0
2018-07-20T00:18:11.405Z,0
2018-07-20T00:19:21.218Z,0
2018-07-20T00:20:31.287Z,0
2018-07-20T00:21:41.366Z,0
2018-07-20T00:22:50.927Z,0
2018-07-20T00:24:00.751Z,0
2018-07-20T00:25:10.574Z,0
2018-07-20T00:26:20.661Z,0
2018-07-20T00:27:30.744Z,0
2018-07-20T00:28:40.823Z,0
2018-07-20T00:29:50.901Z,0
2018-07-20T00:31:00.967Z,0
2018-07-20T00:32:10.768Z,0
2018-07-20T00:33:20.841Z,0
2018-07-20T00:34:30.657Z,0
2018-07-20T00:35:40.722Z,0
2018-07-20T00:36:50.802Z,0
2018-07-20T00:38:00.613Z,0
2018-07-20T00:39:10.489Z,0
2018-07-20T00:40:20.324Z,0
2018-07-20T00:41:30.404Z,0
2018-07-20T00:42:40.467Z,0
2018-07-20T00:43:50.556Z,0
2018-07-20T00:45:00.628Z,0
2018-07-20T00:46:10.710Z,0
2018-07-20T00:47:20.797Z,0
2018-07-20T00:48:30.869Z,0
2018-07-20T00:49:40.941Z,0
2018-07-20T00:50:50.772Z,0
2018-07-20T00:52:00.844Z,0
2018-07-20T00:53:10.658Z,0
2018-07-20T00:54:20.724Z,0
2018-07-20T00:55:30.800Z,0
2018-07-20T00:56:40.398Z,0
2018-07-20T00:57:50.696Z,0
2018-07-20T00:59:00.766Z,0
2018-07-20T01:00:10.835Z,0
2018-07-20T01:01:20.923Z,0
2018-07-20T01:02:31.001Z,0
2018-07-20T01:03:41.079Z,0
2018-07-20T01:04:51.174Z,0
2018-07-20T01:06:00.732Z,0
2018-07-20T01:07:10.817Z,0
2018-07-20T01:08:20.626Z,0
2018-07-20T01:09:30.705Z,0
2018-07-20T01:10:40.803Z,0
2018-07-20T01:11:50.871Z,0
2018-07-20T01:13:00.937Z,0
2018-07-20T01:14:11.069Z,0
2018-07-20T01:15:20.895Z,0
2018-07-20T01:16:30.706Z,0
2018-07-20T01:17:40.522Z,0
2018-07-20T01:18:50.601Z,0
2018-07-20T01:20:00.769Z,0
2018-07-20T01:21:10.830Z,0
2018-07-20T01:22:20.905Z,0
2018-07-20T01:23:30.973Z,0
2018-07-20T01:24:41.055Z,0
2018-07-20T01:25:50.922Z,0
2018-07-20T01:27:00.744Z,0
2018-07-20T01:28:10.831Z,0
2018-07-20T01:29:20.891Z,0
2018-07-20T01:30:30.976Z,0
2018-07-20T01:31:41.099Z,0
2018-07-20T01:32:51.154Z,0
2018-07-20T01:34:01.213Z,0
2018-07-20T01:35:11.313Z,0
2018-07-20T01:36:21.392Z,0
2018-07-20T01:37:31.512Z,0
2018-07-20T01:38:41.591Z,0
2018-07-20T01:39:51.726Z,0
2018-07-20T01:41:01.777Z,0
2018-07-20T01:42:11.850Z,0
2018-07-20T01:43:21.716Z,0
2018-07-20T01:44:31.784Z,0
2018-07-20T01:45:41.848Z,0
2018-07-20T01:46:51.903Z,0
2018-07-20T01:48:01.969Z,0
2018-07-20T01:49:12.046Z,0
2018-07-20T01:50:21.856Z,0
2018-07-20T01:51:31.912Z,0
2018-07-20T01:52:41.463Z,0
2018-07-20T01:53:51.534Z,0
2018-07-20T01:55:01.437Z,0
2018-07-20T01:56:11.511Z,0
2018-07-20T01:57:21.329Z,0
2018-07-20T01:58:31.393Z,0
2018-07-20T01:59:41.215Z,0
2018-07-20T02:00:51.018Z,0
2018-07-20T02:02:01.099Z,0
2018-07-20T02:03:11.180Z,0
2018-07-20T02:04:21.248Z,0
2018-07-20T02:05:31.332Z,0
2018-07-20T02:06:41.401Z,0
2018-07-20T02:07:51.211Z,0
2018-07-20T02:09:01.281Z,0
2018-07-20T02:10:11.101Z,0
2018-07-20T02:11:20.911Z,0
2018-07-20T02:12:30.978Z,0
2018-07-20T02:13:41.051Z,0
2018-07-20T02:14:51.136Z,0
2018-07-20T02:16:01.217Z,0
2018-07-20T02:17:11.037Z,0
2018-07-20T02:18:21.096Z,0
2018-07-20T02:19:31.166Z,0
2018-07-20T02:20:41.220Z,0
2018-07-20T02:21:51.312Z,0
2018-07-20T02:23:01.380Z,0
2018-07-20T02:24:10.937Z,0
2018-07-20T02:25:21.024Z,0
2018-07-20T02:26:31.101Z,0
2018-07-20T02:27:41.171Z,0
2018-07-20T02:28:51.249Z,0
2018-07-20T02:30:01.338Z,0
2018-07-20T02:31:11.402Z,0
2018-07-20T02:32:21.213Z,0
2018-07-20T02:33:31.325Z,0
2018-07-20T02:34:41.138Z,0
2018-07-20T02:35:51.208Z,0
2018-07-20T02:37:00.799Z,0
2018-07-20T02:38:10.880Z,4
2018-07-20T02:39:20.957Z,4
2018-07-20T02:40:31.042Z,0
2018-07-20T02:41:40.877Z,0
2018-07-20T02:42:50.984Z,4
2018-07-20T02:44:00.788Z,4
2018-07-20T02:45:10.619Z,4
2018-07-20T02:46:20.696Z,4
2018-07-20T02:47:30.781Z,4
2018-07-20T02:48:40.859Z,8
2018-07-20T02:49:50.682Z,8
2018-07-20T02:51:00.752Z,8
2018-07-20T02:52:10.558Z,12
2018-07-20T02:53:20.639Z,12
2018-07-20T02:54:30.722Z,12
2018-07-20T02:55:40.795Z,16
2018-07-20T02:56:50.875Z,16
2018-07-20T02:58:00.988Z,20
2018-07-20T02:59:11.068Z,24
2018-07-20T03:00:21.139Z,28
2018-07-20T03:01:31.202Z,32
2018-07-20T03:02:41.030Z,40
2018-07-20T03:35:08.044Z,500
2018-07-20T03:36:17.854Z,524
2018-07-20T03:37:27.942Z,552
2018-07-20T03:38:38.025Z,576
2018-07-20T03:39:48.102Z,608
2018-07-20T03:40:58.178Z,632
2018-07-20T03:42:08.233Z,660
2018-07-20T03:43:18.068Z,692
2018-07-20T03:44:28.133Z,720
2018-07-20T03:45:37.960Z,748
2018-07-20T03:46:48.075Z,776
2018-07-20T03:47:58.152Z,808
2018-07-20T03:49:08.651Z,836
2018-07-20T03:50:18.725Z,864
2018-07-20T03:51:28.801Z,892
2018-07-20T03:52:38.866Z,920
2018-07-20T03:53:48.959Z,944
2018-07-20T03:54:59.026Z,972
2018-07-20T03:56:09.109Z,1000
2018-07-20T03:57:19.192Z,1028
2018-07-20T03:58:29.276Z,1060
2018-07-20T03:59:38.815Z,1084
2018-07-20T04:00:48.877Z,1112
2018-07-20T04:01:58.954Z,1140
2018-07-20T04:03:09.035Z,1172
2018-07-20T04:04:19.121Z,1196
2018-07-20T04:05:29.205Z,1224
2018-07-20T04:06:39.020Z,1252
2018-07-20T04:07:49.104Z,1280
2018-07-20T04:08:59.180Z,1312
2018-07-20T04:10:09.381Z,1340
2018-07-20T04:11:19.531Z,1364
2018-07-20T04:12:29.417Z,1396
2018-07-20T04:13:39.476Z,1420
2018-07-20T04:14:49.549Z,1452
2018-07-20T04:15:59.148Z,1484
2018-07-20T04:17:09.239Z,1520
2018-07-20T04:18:19.066Z,1556
2018-07-20T04:19:29.152Z,1592
2018-07-20T04:20:39.238Z,1620
2018-07-20T04:21:50.370Z,1648
2018-07-20T04:23:00.439Z,1680
2018-07-20T04:24:10.513Z,1716
2018-07-20T04:25:20.570Z,1748
2018-07-20T04:26:30.401Z,1784
2018-07-20T04:27:40.470Z,1828
2018-07-20T04:28:50.557Z,4696
2018-07-20T04:30:00.369Z,11016
2018-07-20T04:31:10.441Z,13056
2018-07-20T04:32:20.533Z,12448
2018-07-20T04:33:30.343Z,12832
2018-07-20T04:34:40.419Z,13152
2018-07-20T04:35:50.486Z,13216
2018-07-20T04:37:00.546Z,12268
2018-07-20T04:38:10.627Z,12108
2018-07-20T04:39:20.450Z,12640
2018-07-20T04:40:30.262Z,13120
2018-07-20T04:41:40.345Z,12928
2018-07-20T04:42:50.159Z,12896
2018-07-20T04:44:00.492Z,12768
2018-07-20T04:45:10.625Z,12672
2018-07-20T04:46:20.702Z,12304
2018-07-20T04:47:30.783Z,12520
2018-07-20T04:48:40.627Z,10396
2018-07-20T04:49:50.734Z,5980
2018-07-20T04:51:00.874Z,7840
2018-07-20T04:52:10.950Z,9568
2018-07-20T04:53:21.043Z,11840
2018-07-20T04:54:31.113Z,11392
2018-07-20T04:55:41.192Z,12020
2018-07-20T04:56:51.247Z,12308
2018-07-20T04:58:01.060Z,12088
2018-07-20T04:59:10.862Z,12108
2018-07-20T05:00:20.930Z,11924
2018-07-20T05:01:31.001Z,11736
2018-07-20T05:02:41.124Z,11720
2018-07-20T05:03:51.691Z,11624
2018-07-20T05:05:01.771Z,11744
2018-07-20T05:06:11.593Z,11816
2018-07-20T05:07:21.683Z,11732
2018-07-20T05:08:31.885Z,11876
2018-07-20T05:09:41.696Z,12012
2018-07-20T05:10:51.768Z,12132
2018-07-20T05:12:01.865Z,12032
2018-07-20T05:13:11.940Z,11896
2018-07-20T05:14:21.800Z,11912
2018-07-20T05:15:31.352Z,12028
2018-07-20T05:16:41.432Z,11920
2018-07-20T05:17:51.516Z,12096
2018-07-20T05:19:01.590Z,11984
2018-07-20T05:20:11.430Z,12056
2018-07-20T05:21:21.517Z,12108
2018-07-20T05:22:31.604Z,11968
2018-07-20T05:23:41.696Z,12028
2018-07-20T05:24:51.771Z,11968
2018-07-20T05:26:01.858Z,11876
2018-07-20T05:27:11.939Z,11964
2018-07-20T05:28:22.008Z,11904
2018-07-20T05:29:32.083Z,11560
2018-07-20T05:30:42.187Z,11360
2018-07-20T05:31:53.290Z,11540
2018-07-20T05:33:03.371Z,11428
2018-07-20T05:34:13.452Z,11508
2018-07-20T05:35:23.289Z,11452
2018-07-20T05:36:32.836Z,11440
2018-07-20T05:37:42.966Z,11240
2018-07-20T05:38:52.796Z,11252
2018-07-20T05:40:02.892Z,11188
2018-07-20T05:41:12.986Z,11108
2018-07-20T05:42:23.079Z,11000
2018-07-20T05:43:32.380Z,10996
2018-07-20T05:44:42.499Z,10864
2018-07-20T05:45:52.306Z,10820
2018-07-20T05:47:02.406Z,10692
2018-07-20T05:48:12.512Z,10620
2018-07-20T05:49:22.376Z,10700
2018-07-20T05:50:31.915Z,10728
2018-07-20T05:51:41.982Z,10536
2018-07-20T05:52:52.061Z,10460
2018-07-20T05:54:01.630Z,10472
2018-07-20T05:55:11.700Z,10304
2018-07-20T05:56:21.510Z,10060
2018-07-20T05:57:31.357Z,10044
2018-07-20T05:58:41.430Z,10004
2018-07-20T05:59:51.241Z,9860
2018-07-20T06:01:01.306Z,9740
2018-07-20T06:02:11.383Z,9588
2018-07-20T06:03:21.451Z,9532
2018-07-20T06:04:31.558Z,9484
2018-07-20T06:05:41.710Z,9296
2018-07-20T06:06:51.962Z,9232
2018-07-20T06:08:02.102Z,9132
2018-07-20T06:09:12.252Z,9024
2018-07-20T06:10:22.080Z,9012
2018-07-20T06:11:31.903Z,8872
2018-07-20T06:12:41.801Z,8804
2018-07-20T06:13:51.656Z,8912
2018-07-20T06:15:01.770Z,8860
2018-07-20T06:16:11.860Z,8856
2018-07-20T06:17:21.986Z,8592
2018-07-20T06:18:32.180Z,8392
2018-07-20T06:19:42.016Z,6808
2018-07-20T06:20:51.873Z,4564
2018-07-20T06:22:02.009Z,3676
2018-07-20T06:23:12.090Z,3620
2018-07-20T06:24:22.193Z,3796
2018-07-20T06:25:32.004Z,3944
2018-07-20T06:26:42.087Z,4320
2018-07-20T06:27:52.197Z,4800
2018-07-20T06:29:02.298Z,4824
2018-07-20T06:30:12.415Z,4452
2018-07-20T06:31:22.228Z,4036
2018-07-20T06:32:32.308Z,4064
2018-07-20T06:33:42.381Z,4348
2018-07-20T06:34:52.464Z,5200
2018-07-20T06:36:02.589Z,6464
2018-07-20T06:37:12.666Z,7100
2018-07-20T06:38:22.756Z,7136
2018-07-20T06:39:32.318Z,7208
2018-07-20T06:40:42.553Z,7140
2018-07-20T06:41:52.784Z,7040
2018-07-20T06:43:02.861Z,6980
2018-07-20T06:44:12.932Z,6908
2018-07-20T06:45:22.745Z,6712
2018-07-20T06:46:32.556Z,6616
2018-07-20T06:47:42.649Z,6476
2018-07-20T06:48:52.491Z,6408
2018-07-20T06:50:02.358Z,6280
2018-07-20T06:51:12.457Z,6164
2018-07-20T06:52:22.552Z,6052
2018-07-20T06:53:32.664Z,5972
2018-07-20T06:54:42.502Z,5856
2018-07-20T06:55:52.394Z,5772
2018-07-20T06:57:02.314Z,5664
2018-07-20T06:58:12.147Z,5548
2018-07-20T06:59:22.232Z,5448
2018-07-20T07:00:32.305Z,5348
2018-07-20T07:01:42.383Z,5272
2018-07-20T07:02:52.468Z,5196
2018-07-20T07:04:02.568Z,5104
2018-07-20T07:05:12.642Z,5024
2018-07-20T07:06:22.722Z,4920
2018-07-20T07:07:32.521Z,4804
2018-07-20T07:08:42.332Z,4684
2018-07-20T07:09:52.460Z,4428
2018-07-20T07:11:02.539Z,4032
2018-07-20T07:12:12.643Z,3872
2018-07-20T07:13:22.459Z,3804
2018-07-20T07:14:32.258Z,3784
2018-07-20T07:15:42.331Z,3768
2018-07-20T07:16:52.477Z,3760
2018-07-20T07:18:02.532Z,3768
2018-07-20T07:19:12.587Z,3796
2018-07-20T07:20:22.399Z,3788
2018-07-20T07:21:32.466Z,3800
2018-07-20T07:22:42.562Z,3824
2018-07-20T07:23:52.802Z,3832
2018-07-20T07:25:02.895Z,3844
2018-07-20T07:26:12.985Z,3912
2018-07-20T07:27:23.050Z,3932
2018-07-20T07:28:33.405Z,3928
2018-07-20T07:29:43.482Z,3900
2018-07-20T07:30:53.612Z,3976
2018-07-20T07:32:03.810Z,3980
2018-07-20T07:33:13.662Z,3976
2018-07-20T07:34:23.775Z,4000
2018-07-20T07:35:33.859Z,4016
2018-07-20T07:36:43.664Z,4080
2018-07-20T07:37:53.749Z,4112
2018-07-20T07:39:03.836Z,4020
2018-07-20T07:40:13.991Z,4060
2018-07-20T07:41:23.814Z,4264
2018-07-20T07:42:33.889Z,4228
2018-07-20T07:43:43.978Z,4296
2018-07-20T07:44:54.049Z,4296
2018-07-20T07:46:04.163Z,4296
2018-07-20T07:47:14.234Z,4372
2018-07-20T07:48:24.291Z,4440
2018-07-20T07:49:34.110Z,4480
2018-07-20T07:50:44.177Z,4516
2018-07-20T07:51:54.289Z,4560
2018-07-20T07:53:04.360Z,4560
2018-07-20T07:54:13.899Z,4664
2018-07-20T07:55:23.968Z,4796
2018-07-20T07:56:34.049Z,3300
2018-07-20T07:57:44.121Z,4696
2018-07-20T07:58:53.945Z,4260
2018-07-20T08:00:04.019Z,5020
2018-07-20T08:01:13.861Z,5328
2018-07-20T08:02:23.947Z,5376
2018-07-20T08:03:34.132Z,4628
2018-07-20T08:04:44.338Z,5724
2018-07-20T08:05:54.425Z,5724
2018-07-20T08:07:04.513Z,5716
2018-07-20T08:08:14.315Z,5616
2018-07-20T08:09:24.396Z,4936
2018-07-20T08:10:34.383Z,5816
2018-07-20T08:11:44.185Z,5612
2018-07-20T08:12:54.270Z,4604
2018-07-20T08:14:04.080Z,5676
2018-07-20T08:15:13.953Z,5780
2018-07-20T08:16:23.797Z,5776
2018-07-20T08:17:33.888Z,5536
2018-07-20T08:18:43.952Z,5648
2018-07-20T08:19:54.038Z,5800
2018-07-20T08:21:04.111Z,5904
2018-07-20T08:22:13.927Z,6144
2018-07-20T08:23:24.007Z,6232
2018-07-20T08:24:34.072Z,6960
2018-07-20T08:25:44.140Z,5516
2018-07-20T08:26:54.307Z,5708
2018-07-20T08:28:04.139Z,6568
2018-07-20T08:29:14.212Z,6080
2018-07-20T08:30:24.023Z,5912
2018-07-20T08:31:34.114Z,7980
2018-07-20T08:32:44.245Z,6912
2018-07-20T08:33:54.329Z,7800
2018-07-20T08:35:04.414Z,5804
2018-07-20T08:36:14.488Z,5760
2018-07-20T08:37:24.313Z,5420
2018-07-20T08:38:33.920Z,5408
2018-07-20T08:39:43.997Z,5580
2018-07-20T08:40:54.104Z,5676
2018-07-20T08:42:04.172Z,5668
2018-07-20T08:43:13.985Z,5768
2018-07-20T08:44:24.128Z,6728
2018-07-20T08:45:33.943Z,7680
2018-07-20T08:46:44.020Z,6180
2018-07-20T08:47:54.108Z,5856
2018-07-20T08:49:04.203Z,5812
2018-07-20T08:50:14.313Z,6084
2018-07-20T08:51:24.139Z,6144
2018-07-20T08:52:33.951Z,7228
2018-07-20T08:53:44.028Z,7264
2018-07-20T08:54:53.605Z,5428
2018-07-20T08:56:03.737Z,6028
2018-07-20T08:57:13.279Z,5860
2018-07-20T08:58:23.374Z,7668
2018-07-20T08:59:33.447Z,7244
2018-07-20T09:00:43.533Z,5520
2018-07-20T09:01:53.615Z,6072
2018-07-20T09:03:03.725Z,5876
2018-07-20T09:04:13.818Z,5688
2018-07-20T09:05:23.916Z,5576
2018-07-20T09:06:34.020Z,5632
2018-07-20T09:07:43.830Z,5316
2018-07-20T09:08:53.907Z,5444
2018-07-20T09:10:03.973Z,5500
2018-07-20T09:11:14.124Z,5692
2018-07-20T09:12:24.260Z,5632
2018-07-20T09:13:34.342Z,5732
2018-07-20T09:14:44.561Z,5832
2018-07-20T09:15:54.405Z,5472
2018-07-20T09:17:04.495Z,5368
2018-07-20T09:18:14.570Z,5336
2018-07-20T09:19:24.671Z,5420
2018-07-20T09:20:34.520Z,5516
2018-07-20T09:21:44.753Z,5540
2018-07-20T09:22:54.598Z,5692
2018-07-20T09:24:04.683Z,7660
2018-07-20T09:25:14.811Z,7716
2018-07-20T09:26:24.644Z,5440
2018-07-20T09:27:34.713Z,7648
2018-07-20T09:28:44.545Z,5256
2018-07-20T09:29:54.628Z,4908
2018-07-20T09:31:04.697Z,4528
2018-07-20T09:32:14.795Z,6860
2018-07-20T09:33:24.617Z,6556
2018-07-20T09:34:34.692Z,4024
2018-07-20T09:35:44.848Z,4288
2018-07-20T09:36:54.931Z,7148
2018-07-20T09:38:05.019Z,7156
2018-07-20T09:39:15.092Z,6948
2018-07-20T09:40:25.160Z,4392
2018-07-20T09:41:34.972Z,4420
2018-07-20T09:42:45.137Z,4824
2018-07-20T09:43:54.974Z,5552
2018-07-20T09:45:05.046Z,6804
2018-07-20T09:46:14.876Z,5444
2018-07-20T09:47:25.004Z,7568
2018-07-20T09:48:35.075Z,7424
2018-07-20T09:49:44.884Z,7384
2018-07-20T09:50:54.713Z,6904
2018-07-20T09:52:04.811Z,6648
2018-07-20T09:53:14.653Z,6540
2018-07-20T09:54:24.757Z,6444
2018-07-20T09:55:34.860Z,6000
2018-07-20T09:56:44.951Z,4232
2018-07-20T09:57:55.024Z,6324
2018-07-20T09:59:05.122Z,6468
2018-07-20T10:00:15.224Z,6144
2018-07-20T10:01:25.372Z,4000
2018-07-20T10:02:35.474Z,6692
2018-07-20T10:03:45.293Z,6808
2018-07-20T10:04:55.226Z,6788
2018-07-20T10:06:05.099Z,6912
2018-07-20T10:07:14.909Z,6836
2018-07-20T10:08:24.983Z,6940
2018-07-20T10:09:35.093Z,6932
2018-07-20T10:10:45.203Z,6416
2018-07-20T10:11:55.289Z,5372
2018-07-20T10:13:05.370Z,4356
2018-07-20T10:14:15.469Z,5616
2018-07-20T10:15:25.281Z,7320
2018-07-20T10:16:35.366Z,7556
2018-07-20T10:17:45.460Z,7788
2018-07-20T10:18:55.560Z,7888
2018-07-20T10:20:04.848Z,6388
2018-07-20T10:21:14.929Z,7596
2018-07-20T10:22:25.030Z,7328
2018-07-20T10:23:35.129Z,5408
2018-07-20T10:24:45.208Z,4060
2018-07-20T10:25:55.327Z,4932
2018-07-20T10:27:05.431Z,4312
2018-07-20T10:28:15.213Z,4080
2018-07-20T10:29:25.325Z,7004
2018-07-20T10:30:35.488Z,6992
2018-07-20T10:31:45.733Z,6952
2018-07-20T10:32:55.794Z,6868
2018-07-20T10:34:05.874Z,6828
2018-07-20T10:35:15.710Z,6908
2018-07-20T10:36:25.895Z,7036
2018-07-20T10:37:35.729Z,7168
2018-07-20T10:38:45.548Z,7208
2018-07-20T10:39:55.370Z,7400
2018-07-20T10:41:05.464Z,7552
2018-07-20T10:42:15.610Z,7780
2018-07-20T10:43:25.686Z,7792
2018-07-20T10:44:35.778Z,7788
2018-07-20T10:45:45.990Z,4464
2018-07-20T10:46:56.292Z,4404
2018-07-20T10:48:06.619Z,4768
2018-07-20T10:49:16.708Z,4160
2018-07-20T10:50:26.792Z,3988
2018-07-20T10:51:36.202Z,3920
2018-07-20T10:52:46.264Z,3904
2018-07-20T10:53:56.560Z,4128
2018-07-20T10:55:06.654Z,7148
2018-07-20T10:56:16.829Z,7084
2018-07-20T10:57:26.660Z,7148
2018-07-20T10:58:36.227Z,7276
2018-07-20T10:59:46.369Z,7360
2018-07-20T11:00:56.457Z,4264
2018-07-20T11:02:06.268Z,7696
2018-07-20T11:03:16.331Z,7760
2018-07-20T11:04:26.171Z,7956
2018-07-20T11:05:36.288Z,7980
2018-07-20T11:06:46.385Z,7800
2018-07-20T11:07:56.547Z,7692
2018-07-20T11:09:06.703Z,7676
2018-07-20T11:10:16.775Z,7636
2018-07-20T11:11:26.851Z,7608
2018-07-20T11:12:36.925Z,7576
2018-07-20T11:13:47.242Z,7700
2018-07-20T11:14:57.447Z,7776
2018-07-20T11:16:07.532Z,7856
2018-07-20T11:17:17.617Z,7844
2018-07-20T11:18:27.689Z,7740
2018-07-20T11:19:37.769Z,7660
2018-07-20T11:20:47.593Z,7696
2018-07-20T11:21:57.688Z,7628
2018-07-20T11:23:07.771Z,7628
2018-07-20T11:24:17.878Z,7628
2018-07-20T11:25:27.964Z,7620
2018-07-20T11:26:38.069Z,7580
2018-07-20T11:27:48.153Z,7544
2018-07-20T11:28:58.236Z,7200
2018-07-20T11:30:08.351Z,7544
2018-07-20T11:31:18.454Z,7412
2018-07-20T11:32:28.267Z,5584
2018-07-20T11:33:38.359Z,6348
2018-07-20T11:34:48.685Z,7940
2018-07-20T11:35:58.450Z,6320
2018-07-20T11:37:08.556Z,5904
2018-07-20T11:38:18.137Z,4480
2018-07-20T11:39:28.221Z,4436
2018-07-20T11:40:38.396Z,4796
2018-07-20T11:41:48.262Z,4592
2018-07-20T11:42:58.395Z,4652
2018-07-20T11:44:08.486Z,4752
2018-07-20T11:45:18.595Z,8292
2018-07-20T11:46:28.737Z,8072
2018-07-20T11:47:38.812Z,7912
2018-07-20T11:48:48.902Z,7800
2018-07-20T11:49:58.984Z,6768
2018-07-20T11:51:08.566Z,6004
2018-07-20T11:52:18.398Z,3820
2018-07-20T11:53:28.484Z,7292
2018-07-20T11:54:38.587Z,7272
2018-07-20T11:55:48.674Z,7432
2018-07-20T11:56:58.559Z,5620
2018-07-20T11:58:08.684Z,3936
2018-07-20T11:59:18.780Z,7032
2018-07-20T12:00:28.850Z,4480
2018-07-20T12:01:38.961Z,6940
2018-07-20T12:02:48.789Z,4900
2018-07-20T12:03:58.934Z,4556
2018-07-20T12:05:09.029Z,4480
2018-07-20T12:06:18.852Z,4532
2018-07-20T12:07:28.942Z,4596
2018-07-20T12:08:39.050Z,4736
2018-07-20T12:09:48.922Z,4840
2018-07-20T12:10:58.990Z,4844
2018-07-20T12:12:09.077Z,4676
2018-07-20T12:13:18.934Z,4460
2018-07-20T12:14:29.033Z,4264
2018-07-20T12:15:39.130Z,4204
2018-07-20T12:16:49.224Z,4196
2018-07-20T12:17:59.308Z,4812
2018-07-20T12:19:09.465Z,4180
2018-07-20T12:20:19.304Z,4012
2018-07-20T12:21:29.402Z,3904
2018-07-20T12:22:39.489Z,3812
2018-07-20T12:23:49.588Z,3824
2018-07-20T12:24:59.676Z,3828
2018-07-20T12:26:09.523Z,4308
2018-07-20T12:27:19.615Z,7524
2018-07-20T12:28:29.689Z,7108
2018-07-20T12:29:39.829Z,3936
2018-07-20T12:30:49.669Z,7496
2018-07-20T12:31:59.761Z,6784
2018-07-20T12:33:09.848Z,3776
2018-07-20T12:34:19.930Z,3692
2018-07-20T12:35:29.999Z,3652
2018-07-20T12:36:39.807Z,3604
2018-07-20T12:37:49.669Z,3608
2018-07-20T12:38:59.768Z,3700
2018-07-20T12:40:09.846Z,3868
2018-07-20T12:41:19.751Z,4016
2018-07-20T12:42:29.923Z,4112
2018-07-20T12:43:40.047Z,4248
2018-07-20T12:44:50.122Z,4364
2018-07-20T12:46:00.206Z,4308
2018-07-20T12:47:10.297Z,4272
2018-07-20T12:48:20.126Z,4384
2018-07-20T12:49:30.275Z,7552
2018-07-20T12:50:40.410Z,7500
2018-07-20T12:51:50.494Z,7416
2018-07-20T12:53:00.610Z,7344
2018-07-20T12:54:10.651Z,7292
2018-07-20T12:55:20.797Z,7148
2018-07-20T12:56:30.882Z,7100
2018-07-20T12:57:40.977Z,7020
2018-07-20T12:58:51.563Z,6788
2018-07-20T13:00:01.680Z,6956
2018-07-20T13:01:11.846Z,4504
2018-07-20T13:02:21.952Z,3812
2018-07-20T13:03:31.787Z,3776
2018-07-20T13:04:41.886Z,3656
2018-07-20T13:05:51.684Z,3632
2018-07-20T13:07:01.550Z,3580
2018-07-20T13:08:11.681Z,3428
2018-07-20T13:09:21.769Z,3296
2018-07-20T13:10:31.862Z,3180
2018-07-20T13:11:41.958Z,3448
2018-07-20T13:12:52.112Z,4096
2018-07-20T13:14:02.191Z,6036
2018-07-20T13:15:12.291Z,3136
2018-07-20T13:16:22.129Z,3080
2018-07-20T13:17:32.236Z,3032
2018-07-20T13:18:42.366Z,3016
2018-07-20T13:19:52.459Z,3084
2018-07-20T13:21:02.543Z,3228
2018-07-20T13:22:12.376Z,3344
2018-07-20T13:23:22.457Z,3372
2018-07-20T13:24:32.607Z,6404
2018-07-20T13:25:42.728Z,3360
2018-07-20T13:26:52.812Z,3320
2018-07-20T13:28:02.932Z,6024
2018-07-20T13:29:13.066Z,6320
2018-07-20T13:30:23.226Z,3844
2018-07-20T13:31:33.329Z,6424
2018-07-20T13:32:43.416Z,6440
2018-07-20T13:33:53.490Z,6476
2018-07-20T13:35:03.552Z,6488
2018-07-20T13:36:13.372Z,6452
2018-07-20T13:37:23.456Z,6456
2018-07-20T13:38:33.291Z,6500
2018-07-20T13:39:43.429Z,6524
2018-07-20T13:40:53.356Z,4244
2018-07-20T13:42:03.471Z,4188
2018-07-20T13:43:13.542Z,6236
2018-07-20T13:44:23.383Z,6156
2018-07-20T13:45:33.708Z,3440
2018-07-20T13:46:43.793Z,3184
2018-07-20T13:47:53.882Z,3096
2018-07-20T13:49:03.961Z,3056
2018-07-20T13:50:13.783Z,3072
2018-07-20T13:51:23.858Z,3172
2018-07-20T13:52:33.795Z,3208
2018-07-20T13:53:44.058Z,3160
2018-07-20T13:54:54.151Z,3124
2018-07-20T13:56:03.733Z,3132
2018-07-20T13:57:13.801Z,3128
2018-07-20T13:58:23.698Z,3104
2018-07-20T13:59:33.880Z,3336
2018-07-20T14:00:43.745Z,3104
2018-07-20T14:01:53.572Z,3132
2018-07-20T14:03:03.732Z,3188
2018-07-20T14:04:13.559Z,3348
2018-07-20T14:05:23.380Z,3576
2018-07-20T14:06:33.462Z,3680
2018-07-20T14:07:43.043Z,5992
2018-07-20T14:08:53.139Z,3736
2018-07-20T14:10:03.231Z,4440
2018-07-20T14:11:13.099Z,3612
2018-07-20T14:12:23.220Z,4640
2018-07-20T14:13:33.357Z,4588
2018-07-20T14:14:43.450Z,5708
2018-07-20T14:15:53.276Z,4644
2018-07-20T14:17:03.112Z,3440
2018-07-20T14:18:13.492Z,3496
2018-07-20T14:19:23.572Z,5700
2018-07-20T14:20:33.672Z,6000
2018-07-20T14:21:43.755Z,6196
2018-07-20T14:22:53.839Z,6300
2018-07-20T14:24:03.938Z,6264
2018-07-20T14:25:14.040Z,6164
2018-07-20T14:26:24.432Z,6016
2018-07-20T14:27:34.670Z,5864
2018-07-20T14:28:44.766Z,5752
2018-07-20T14:29:54.871Z,5600
2018-07-20T14:31:04.955Z,5532
2018-07-20T14:32:15.037Z,5472
2018-07-20T14:33:25.386Z,5512
2018-07-20T14:34:35.556Z,5508
2018-07-20T14:35:45.369Z,5436
2018-07-20T14:36:55.453Z,3768
2018-07-20T14:38:05.340Z,3372
2018-07-20T14:41:55.873Z,4048
2018-07-20T14:43:05.854Z,3120
2018-07-20T14:44:15.839Z,3016
2018-07-20T14:45:25.671Z,2980
2018-07-20T14:46:35.778Z,2976
2018-07-20T14:47:45.922Z,2980
2018-07-20T14:48:55.761Z,3000
2018-07-20T14:50:06.093Z,3048
2018-07-20T14:51:16.494Z,4612
2018-07-20T14:52:26.386Z,4980
2018-07-20T14:53:36.568Z,5044
2018-07-20T14:54:46.448Z,5144
2018-07-20T14:55:56.572Z,5200
2018-07-20T14:57:06.659Z,5236
2018-07-20T14:58:16.764Z,5268
2018-07-20T14:59:26.836Z,5276
2018-07-20T15:00:36.654Z,5240
2018-07-20T15:01:46.711Z,5200
2018-07-20T15:02:56.886Z,5168
2018-07-20T15:04:06.993Z,5128
2018-07-20T15:05:17.082Z,5148
2018-07-20T15:06:27.162Z,5108
2018-07-20T15:07:36.987Z,5040
2018-07-20T15:08:47.417Z,5036
2018-07-20T15:09:57.249Z,5020
2018-07-20T15:11:07.393Z,4976
2018-07-20T15:12:17.612Z,4964
2018-07-20T15:13:27.565Z,4952
2018-07-20T15:14:37.665Z,4960
2018-07-20T15:15:47.494Z,4968
2018-07-20T15:16:57.594Z,4940
2018-07-20T15:18:07.956Z,4924
2018-07-20T15:19:18.069Z,4900
2018-07-20T15:20:28.172Z,4864
2018-07-20T15:21:38.278Z,4816
2018-07-20T15:22:48.108Z,4784
2018-07-20T15:23:57.931Z,4760
2018-07-20T15:25:08.034Z,4756
2018-07-20T15:26:18.155Z,4720
2018-07-20T15:27:28.227Z,4652
2018-07-20T15:28:38.365Z,4576
2018-07-20T15:29:48.650Z,4532
2018-07-20T15:30:58.740Z,4508
2018-07-20T15:32:08.821Z,4480
2018-07-20T15:33:18.658Z,4452
2018-07-20T15:34:28.868Z,4404
2018-07-20T15:35:38.966Z,4384
2018-07-20T15:36:49.071Z,4348
2018-07-20T15:38:00.033Z,4304
2018-07-20T15:39:10.123Z,4260
2018-07-20T15:40:20.235Z,4224
2018-07-20T15:41:30.309Z,4192
2018-07-20T15:42:40.411Z,4176
2018-07-20T15:43:50.816Z,4168
2018-07-20T15:45:00.939Z,4144
2018-07-20T15:46:14.021Z,4128
2018-07-20T15:47:24.293Z,4132
2018-07-20T15:48:34.574Z,4116
2018-07-20T15:49:44.741Z,4100
2018-07-20T15:50:54.843Z,4080
2018-07-20T15:53:43.536Z,4016
2018-07-20T15:54:53.240Z,3996
2018-07-20T15:56:03.365Z,3960
2018-07-20T15:57:13.500Z,3940
2018-07-20T15:58:23.605Z,3920
2018-07-20T15:59:33.775Z,3896
2018-07-20T16:00:43.928Z,3868
2018-07-20T16:01:53.763Z,3844
2018-07-20T16:03:03.861Z,3840
2018-07-20T16:04:13.961Z,3820
2018-07-20T16:05:24.051Z,3796
2018-07-20T16:06:34.161Z,3776
2018-07-20T16:07:44.256Z,3736
2018-07-20T16:08:54.077Z,3720
2018-07-20T16:10:04.180Z,3700
2018-07-20T16:11:14.264Z,3664
2018-07-20T16:12:24.101Z,3636
2018-07-20T16:13:34.286Z,3608
2018-07-20T16:14:44.433Z,3572
2018-07-20T16:15:54.527Z,3548
2018-07-20T16:17:04.689Z,3520
2018-07-20T16:18:14.955Z,3496
2018-07-20T16:19:24.825Z,3472
2018-07-20T16:20:34.960Z,3448
2018-07-20T16:21:44.795Z,3416
2018-07-20T16:22:54.965Z,3340